Sturbridge, Massachusetts
Current Conditions -  °F | °C
As of 9:54 AM on Monday 22 Dec 2014 (Local Time) from KORH Reporting Station
Overcast Overcast  
Wind Chill: 25°   Ceiling: 600
Heat Index: 31°   Visibility: 10mi
Dew Point: 28°   Wind: 6mph
Humidity: 89%   Direction: 40°NE
Pressure: 30.35"   Gusts: NA
Location:  42.1°N, 72.06°W
Report Text: KORH 221454Z 04005KT 10SM OVC006 M01/M02 A3035 RMK AO2 SLP293 60001 T10061022 53007
Loading
Personal Weather Stations






























Interactive Weather Map New forecast layout! Learn more

10-Day Weather Forecast

Advertisements
Track Severe Weather on mobile